sensor_id;sensor_type;location;lat;lon;timestamp;P1;durP1;ratioP1;P2;durP2;ratioP2
18818;SDS011;9537;45.594;9.294;2023-02-22T00:00:20;42.37;;;28.70;;
18818;SDS011;9537;45.594;9.294;2023-02-22T00:01:22;44.90;;;28.33;;
18818;SDS011;9537;45.594;9.294;2023-02-22T00:02:34;48.37;;;30.17;;
18818;SDS011;9537;45.594;9.294;2023-02-22T00:03:37;44.20;;;28.93;;
18818;SDS011;9537;45.594;9.294;2023-02-22T00:04:40;46.00;;;28.13;;
18818;SDS011;9537;45.594;9.294;2023-02-22T00:05:41;43.47;;;28.33;;
18818;SDS011;9537;45.594;9.294;2023-02-22T00:06:47;39.80;;;27.53;;
18818;SDS011;9537;45.594;9.294;2023-02-22T00:07:49;41.70;;;27.47;;
18818;SDS011;9537;45.594;9.294;2023-02-22T00:08:51;40.27;;;27.37;;
18818;SDS011;9537;45.594;9.294;2023-02-22T00:09:52;40.60;;;27.33;;
18818;SDS011;9537;45.594;9.294;2023-02-22T00:10:54;39.93;;;26.70;;
18818;SDS011;9537;45.594;9.294;2023-02-22T00:11:55;43.53;;;28.03;;
18818;SDS011;9537;45.594;9.294;2023-02-22T00:12:58;40.73;;;27.23;;
18818;SDS011;9537;45.594;9.294;2023-02-22T00:13:59;40.97;;;27.57;;
18818;SDS011;9537;45.594;9.294;2023-02-22T00:15:01;43.33;;;28.93;;
18818;SDS011;9537;45.594;9.294;2023-02-22T00:16:03;40.87;;;27.87;;
18818;SDS011;9537;45.594;9.294;2023-02-22T00:17:05;41.33;;;28.50;;
18818;SDS011;9537;45.594;9.294;2023-02-22T00:18:07;42.70;;;29.83;;
18818;SDS011;9537;45.594;9.294;2023-02-22T00:19:10;44.50;;;28.50;;
18818;SDS011;9537;45.594;9.294;2023-02-22T00:20:13;45.47;;;28.10;;
18818;SDS011;9537;45.594;9.294;2023-02-22T00:21:17;38.10;;;26.47;;
18818;SDS011;9537;45.594;9.294;2023-02-22T00:22:20;42.37;;;27.60;;
18818;SDS011;9537;45.594;9.294;2023-02-22T00:23:21;43.37;;;27.60;;
18818;SDS011;9537;45.594;9.294;2023-02-22T00:24:24;40.07;;;27.43;;
18818;SDS011;9537;45.594;9.294;2023-02-22T00:25:25;41.40;;;28.03;;
18818;SDS011;9537;45.594;9.294;2023-02-22T00:26:28;43.93;;;28.90;;
18818;SDS011;9537;45.594;9.294;2023-02-22T00:27:33;43.67;;;27.77;;
18818;SDS011;9537;45.594;9.294;2023-02-22T00:28:35;40.93;;;28.10;;
18818;SDS011;9537;45.594;9.294;2023-02-22T00:29:36;40.23;;;26.87;;
18818;SDS011;9537;45.594;9.294;2023-02-22T00:30:38;43.23;;;27.90;;
18818;SDS011;9537;45.594;9.294;2023-02-22T00:31:42;42.07;;;27.70;;
18818;SDS011;9537;45.594;9.294;2023-02-22T00:32:45;41.87;;;28.10;;
18818;SDS011;9537;45.594;9.294;2023-02-22T00:33:46;42.27;;;27.77;;
18818;SDS011;9537;45.594;9.294;2023-02-22T00:34:50;42.40;;;28.13;;
18818;SDS011;9537;45.594;9.294;2023-02-22T00:35:52;42.23;;;27.73;;
18818;SDS011;9537;45.594;9.294;2023-02-22T00:36:54;43.17;;;28.73;;
18818;SDS011;9537;45.594;9.294;2023-02-22T00:37:58;40.97;;;28.50;;
18818;SDS011;9537;45.594;9.294;2023-02-22T00:39:01;41.30;;;27.93;;
18818;SDS011;9537;45.594;9.294;2023-02-22T00:40:02;42.93;;;28.77;;
18818;SDS011;9537;45.594;9.294;2023-02-22T00:41:07;45.70;;;29.73;;
18818;SDS011;9537;45.594;9.294;2023-02-22T00:42:08;41.50;;;28.07;;
18818;SDS011;9537;45.594;9.294;2023-02-22T00:43:10;45.17;;;29.17;;
18818;SDS011;9537;45.594;9.294;2023-02-22T00:44:12;40.50;;;28.00;;
18818;SDS011;9537;45.594;9.294;2023-02-22T00:45:14;43.40;;;28.77;;
18818;SDS011;9537;45.594;9.294;2023-02-22T00:46:16;45.13;;;28.33;;
18818;SDS011;9537;45.594;9.294;2023-02-22T00:47:18;41.43;;;28.60;;
18818;SDS011;9537;45.594;9.294;2023-02-22T00:48:19;45.50;;;29.33;;
18818;SDS011;9537;45.594;9.294;2023-02-22T00:49:21;40.47;;;28.60;;
18818;SDS011;9537;45.594;9.294;2023-02-22T00:50:23;42.30;;;28.93;;
18818;SDS011;9537;45.594;9.294;2023-02-22T00:51:27;43.47;;;29.77;;
18818;SDS011;9537;45.594;9.294;2023-02-22T00:52:28;47.63;;;29.83;;
18818;SDS011;9537;45.594;9.294;2023-02-22T00:53:31;44.80;;;30.57;;
18818;SDS011;9537;45.594;9.294;2023-02-22T00:54:32;46.00;;;29.00;;
18818;SDS011;9537;45.594;9.294;2023-02-22T00:55:34;43.00;;;27.57;;
18818;SDS011;9537;45.594;9.294;2023-02-22T00:56:37;40.93;;;27.43;;
18818;SDS011;9537;45.594;9.294;2023-02-22T00:57:39;41.23;;;27.60;;
18818;SDS011;9537;45.594;9.294;2023-02-22T00:58:39;36.83;;;27.07;;
18818;SDS011;9537;45.594;9.294;2023-02-22T00:59:41;41.03;;;27.93;;
18818;SDS011;9537;45.594;9.294;2023-02-22T01:00:42;43.67;;;28.10;;
18818;SDS011;9537;45.594;9.294;2023-02-22T01:01:45;40.63;;;28.27;;
18818;SDS011;9537;45.594;9.294;2023-02-22T01:02:46;41.97;;;28.57;;
18818;SDS011;9537;45.594;9.294;2023-02-22T01:03:50;40.33;;;27.73;;
18818;SDS011;9537;45.594;9.294;2023-02-22T01:04:51;42.87;;;29.03;;
18818;SDS011;9537;45.594;9.294;2023-02-22T01:05:53;46.60;;;28.90;;
18818;SDS011;9537;45.594;9.294;2023-02-22T01:06:54;46.40;;;29.43;;
18818;SDS011;9537;45.594;9.294;2023-02-22T01:07:56;43.27;;;29.70;;
18818;SDS011;9537;45.594;9.294;2023-02-22T01:09:01;45.93;;;28.17;;
18818;SDS011;9537;45.594;9.294;2023-02-22T01:10:04;43.30;;;29.13;;
18818;SDS011;9537;45.594;9.294;2023-02-22T01:11:07;45.93;;;28.90;;
18818;SDS011;9537;45.594;9.294;2023-02-22T01:12:09;48.30;;;30.60;;
18818;SDS011;9537;45.594;9.294;2023-02-22T01:13:12;44.10;;;28.77;;
18818;SDS011;9537;45.594;9.294;2023-02-22T01:14:14;48.27;;;30.97;;
18818;SDS011;9537;45.594;9.294;2023-02-22T01:15:17;41.33;;;28.90;;
18818;SDS011;9537;45.594;9.294;2023-02-22T01:16:21;42.53;;;28.43;;
18818;SDS011;9537;45.594;9.294;2023-02-22T01:17:22;44.97;;;29.97;;
18818;SDS011;9537;45.594;9.294;2023-02-22T01:18:24;44.57;;;29.30;;
18818;SDS011;9537;45.594;9.294;2023-02-22T01:19:25;47.00;;;29.70;;
18818;SDS011;9537;45.594;9.294;2023-02-22T01:20:27;45.60;;;29.33;;
18818;SDS011;9537;45.594;9.294;2023-02-22T01:21:28;45.50;;;30.43;;
18818;SDS011;9537;45.594;9.294;2023-02-22T01:22:30;45.60;;;30.50;;
18818;SDS011;9537;45.594;9.294;2023-02-22T01:23:31;45.50;;;29.73;;
18818;SDS011;9537;45.594;9.294;2023-02-22T01:24:34;45.80;;;28.83;;
18818;SDS011;9537;45.594;9.294;2023-02-22T01:25:36;44.87;;;29.43;;
18818;SDS011;9537;45.594;9.294;2023-02-22T01:26:37;49.27;;;29.77;;
18818;SDS011;9537;45.594;9.294;2023-02-22T01:27:38;46.27;;;29.73;;
18818;SDS011;9537;45.594;9.294;2023-02-22T01:28:40;42.73;;;27.67;;
18818;SDS011;9537;45.594;9.294;2023-02-22T01:29:41;43.83;;;29.53;;
18818;SDS011;9537;45.594;9.294;2023-02-22T01:30:43;49.43;;;30.30;;
18818;SDS011;9537;45.594;9.294;2023-02-22T01:31:49;49.20;;;29.73;;
18818;SDS011;9537;45.594;9.294;2023-02-22T01:32:52;47.80;;;30.47;;
18818;SDS011;9537;45.594;9.294;2023-02-22T01:33:53;47.37;;;30.77;;
18818;SDS011;9537;45.594;9.294;2023-02-22T01:34:55;44.87;;;29.20;;
18818;SDS011;9537;45.594;9.294;2023-02-22T01:35:56;52.90;;;32.93;;
18818;SDS011;9537;45.594;9.294;2023-02-22T01:36:59;47.80;;;30.83;;
18818;SDS011;9537;45.594;9.294;2023-02-22T01:38:00;49.87;;;32.13;;
18818;SDS011;9537;45.594;9.294;2023-02-22T01:39:03;50.10;;;32.07;;
18818;SDS011;9537;45.594;9.294;2023-02-22T01:40:08;55.20;;;33.60;;
18818;SDS011;9537;45.594;9.294;2023-02-22T01:41:15;50.37;;;32.67;;
18818;SDS011;9537;45.594;9.294;2023-02-22T01:42:17;49.47;;;32.47;;
18818;SDS011;9537;45.594;9.294;2023-02-22T01:43:19;55.97;;;34.67;;
18818;SDS011;9537;45.594;9.294;2023-02-22T01:44:25;54.40;;;34.37;;
18818;SDS011;9537;45.594;9.294;2023-02-22T01:45:47;53.43;;;33.23;;
18818;SDS011;9537;45.594;9.294;2023-02-22T01:46:52;58.03;;;34.83;;
18818;SDS011;9537;45.594;9.294;2023-02-22T01:47:53;60.20;;;37.57;;
18818;SDS011;9537;45.594;9.294;2023-02-22T01:48:56;57.83;;;35.60;;
18818;SDS011;9537;45.594;9.294;2023-02-22T01:50:01;65.00;;;38.97;;
18818;SDS011;9537;45.594;9.294;2023-02-22T01:51:02;65.13;;;38.97;;
18818;SDS011;9537;45.594;9.294;2023-02-22T01:52:11;69.93;;;41.20;;
18818;SDS011;9537;45.594;9.294;2023-02-22T01:53:16;64.70;;;41.00;;
18818;SDS011;9537;45.594;9.294;2023-02-22T01:54:22;71.90;;;42.27;;
18818;SDS011;9537;45.594;9.294;2023-02-22T01:55:29;73.53;;;43.27;;
18818;SDS011;9537;45.594;9.294;2023-02-22T01:56:31;76.47;;;43.63;;
18818;SDS011;9537;45.594;9.294;2023-02-22T01:57:37;79.43;;;45.70;;
18818;SDS011;9537;45.594;9.294;2023-02-22T01:58:40;82.80;;;46.70;;
18818;SDS011;9537;45.594;9.294;2023-02-22T01:59:46;78.93;;;45.20;;
18818;SDS011;9537;45.594;9.294;2023-02-22T02:00:49;88.47;;;46.43;;
18818;SDS011;9537;45.594;9.294;2023-02-22T02:01:51;81.00;;;47.27;;
18818;SDS011;9537;45.594;9.294;2023-02-22T02:02:54;77.13;;;47.47;;
18818;SDS011;9537;45.594;9.294;2023-02-22T02:04:01;82.60;;;48.43;;
18818;SDS011;9537;45.594;9.294;2023-02-22T02:05:05;86.13;;;47.77;;
18818;SDS011;9537;45.594;9.294;2023-02-22T02:06:11;82.53;;;47.63;;
18818;SDS011;9537;45.594;9.294;2023-02-22T02:07:13;81.10;;;47.53;;
18818;SDS011;9537;45.594;9.294;2023-02-22T02:08:23;81.20;;;46.90;;
18818;SDS011;9537;45.594;9.294;2023-02-22T02:09:31;83.77;;;45.60;;
18818;SDS011;9537;45.594;9.294;2023-02-22T02:10:38;89.77;;;49.13;;
18818;SDS011;9537;45.594;9.294;2023-02-22T02:11:41;80.87;;;46.67;;
18818;SDS011;9537;45.594;9.294;2023-02-22T02:12:44;89.17;;;48.90;;
18818;SDS011;9537;45.594;9.294;2023-02-22T02:13:48;90.13;;;49.90;;
18818;SDS011;9537;45.594;9.294;2023-02-22T02:14:52;91.17;;;50.40;;
18818;SDS011;9537;45.594;9.294;2023-02-22T02:15:53;94.30;;;51.27;;
18818;SDS011;9537;45.594;9.294;2023-02-22T02:16:55;88.73;;;52.83;;
18818;SDS011;9537;45.594;9.294;2023-02-22T02:18:03;89.63;;;52.47;;
18818;SDS011;9537;45.594;9.294;2023-02-22T02:19:08;103.20;;;54.60;;
18818;SDS011;9537;45.594;9.294;2023-02-22T02:20:16;91.37;;;51.80;;
18818;SDS011;9537;45.594;9.294;2023-02-22T02:23:07;105.07;;;54.33;;
18818;SDS011;9537;45.594;9.294;2023-02-22T02:26:28;93.93;;;49.70;;
18818;SDS011;9537;45.594;9.294;2023-02-22T02:27:49;105.13;;;52.30;;
18818;SDS011;9537;45.594;9.294;2023-02-22T02:32:45;103.80;;;50.03;;
18818;SDS011;9537;45.594;9.294;2023-02-22T02:33:53;101.77;;;52.37;;
18818;SDS011;9537;45.594;9.294;2023-02-22T02:35:03;111.53;;;54.77;;
18818;SDS011;9537;45.594;9.294;2023-02-22T02:36:09;100.43;;;55.80;;
18818;SDS011;9537;45.594;9.294;2023-02-22T02:37:20;106.67;;;54.93;;
18818;SDS011;9537;45.594;9.294;2023-02-22T02:38:30;106.40;;;55.90;;
18818;SDS011;9537;45.594;9.294;2023-02-22T02:39:36;107.23;;;56.13;;
18818;SDS011;9537;45.594;9.294;2023-02-22T02:40:45;108.40;;;57.73;;
18818;SDS011;9537;45.594;9.294;2023-02-22T02:41:51;109.20;;;58.33;;
18818;SDS011;9537;45.594;9.294;2023-02-22T02:42:56;110.87;;;60.07;;
18818;SDS011;9537;45.594;9.294;2023-02-22T02:44:03;117.60;;;59.10;;
18818;SDS011;9537;45.594;9.294;2023-02-22T02:45:13;113.83;;;60.47;;
18818;SDS011;9537;45.594;9.294;2023-02-22T02:46:19;119.17;;;60.70;;
18818;SDS011;9537;45.594;9.294;2023-02-22T02:47:27;127.47;;;61.73;;
18818;SDS011;9537;45.594;9.294;2023-02-22T02:48:35;119.20;;;61.30;;
18818;SDS011;9537;45.594;9.294;2023-02-22T02:49:43;120.60;;;63.23;;
18818;SDS011;9537;45.594;9.294;2023-02-22T02:50:48;122.30;;;65.30;;
18818;SDS011;9537;45.594;9.294;2023-02-22T02:51:52;123.47;;;65.73;;
18818;SDS011;9537;45.594;9.294;2023-02-22T02:52:56;120.13;;;65.27;;
18818;SDS011;9537;45.594;9.294;2023-02-22T02:54:02;123.53;;;63.53;;
18818;SDS011;9537;45.594;9.294;2023-02-22T02:55:05;124.37;;;65.37;;
18818;SDS011;9537;45.594;9.294;2023-02-22T02:56:10;126.20;;;67.03;;
18818;SDS011;9537;45.594;9.294;2023-02-22T02:57:11;133.20;;;69.60;;
18818;SDS011;9537;45.594;9.294;2023-02-22T02:58:16;140.03;;;70.43;;
18818;SDS011;9537;45.594;9.294;2023-02-22T02:59:26;124.73;;;67.10;;
18818;SDS011;9537;45.594;9.294;2023-02-22T03:00:30;129.07;;;66.50;;
18818;SDS011;9537;45.594;9.294;2023-02-22T03:01:43;134.43;;;69.83;;
18818;SDS011;9537;45.594;9.294;2023-02-22T03:03:00;136.80;;;70.57;;
18818;SDS011;9537;45.594;9.294;2023-02-22T03:04:18;133.17;;;68.50;;
18818;SDS011;9537;45.594;9.294;2023-02-22T03:05:29;139.57;;;70.63;;
18818;SDS011;9537;45.594;9.294;2023-02-22T03:06:46;131.50;;;68.90;;
18818;SDS011;9537;45.594;9.294;2023-02-22T03:08:06;135.17;;;66.80;;
18818;SDS011;9537;45.594;9.294;2023-02-22T03:09:15;132.43;;;68.40;;
18818;SDS011;9537;45.594;9.294;2023-02-22T03:10:27;138.40;;;69.70;;
18818;SDS011;9537;45.594;9.294;2023-02-22T03:11:44;136.33;;;68.87;;
18818;SDS011;9537;45.594;9.294;2023-02-22T03:13:02;135.23;;;67.73;;
18818;SDS011;9537;45.594;9.294;2023-02-22T03:14:16;141.17;;;73.17;;
18818;SDS011;9537;45.594;9.294;2023-02-22T03:15:26;139.73;;;69.53;;
18818;SDS011;9537;45.594;9.294;2023-02-22T03:16:36;135.53;;;68.23;;
18818;SDS011;9537;45.594;9.294;2023-02-22T03:17:46;143.37;;;69.67;;
18818;SDS011;9537;45.594;9.294;2023-02-22T03:18:53;143.47;;;69.97;;
18818;SDS011;9537;45.594;9.294;2023-02-22T03:19:59;143.60;;;74.83;;
18818;SDS011;9537;45.594;9.294;2023-02-22T03:21:11;145.63;;;74.27;;
18818;SDS011;9537;45.594;9.294;2023-02-22T03:22:22;139.00;;;72.93;;
18818;SDS011;9537;45.594;9.294;2023-02-22T03:23:28;140.90;;;70.67;;
18818;SDS011;9537;45.594;9.294;2023-02-22T03:24:35;138.30;;;70.03;;
18818;SDS011;9537;45.594;9.294;2023-02-22T03:25:45;144.73;;;75.23;;
18818;SDS011;9537;45.594;9.294;2023-02-22T03:26:50;150.37;;;76.03;;
18818;SDS011;9537;45.594;9.294;2023-02-22T03:28:02;144.57;;;75.47;;
18818;SDS011;9537;45.594;9.294;2023-02-22T03:29:07;146.87;;;73.50;;
18818;SDS011;9537;45.594;9.294;2023-02-22T03:30:13;148.40;;;75.17;;
18818;SDS011;9537;45.594;9.294;2023-02-22T03:31:20;145.77;;;74.63;;
18818;SDS011;9537;45.594;9.294;2023-02-22T03:32:27;153.30;;;75.73;;
18818;SDS011;9537;45.594;9.294;2023-02-22T03:33:34;150.90;;;74.43;;
18818;SDS011;9537;45.594;9.294;2023-02-22T03:34:41;138.93;;;73.37;;
18818;SDS011;9537;45.594;9.294;2023-02-22T03:35:49;142.87;;;73.73;;
18818;SDS011;9537;45.594;9.294;2023-02-22T03:36:56;139.07;;;74.17;;
18818;SDS011;9537;45.594;9.294;2023-02-22T03:38:02;152.20;;;77.00;;
18818;SDS011;9537;45.594;9.294;2023-02-22T03:39:09;152.53;;;77.07;;
18818;SDS011;9537;45.594;9.294;2023-02-22T03:41:25;141.87;;;73.20;;
18818;SDS011;9537;45.594;9.294;2023-02-22T03:42:28;155.90;;;73.37;;
18818;SDS011;9537;45.594;9.294;2023-02-22T03:43:33;149.70;;;73.63;;
18818;SDS011;9537;45.594;9.294;2023-02-22T03:44:39;148.43;;;75.03;;
18818;SDS011;9537;45.594;9.294;2023-02-22T03:45:44;133.63;;;69.33;;
18818;SDS011;9537;45.594;9.294;2023-02-22T03:46:48;152.90;;;73.30;;
18818;SDS011;9537;45.594;9.294;2023-02-22T03:47:56;149.27;;;76.57;;
18818;SDS011;9537;45.594;9.294;2023-02-22T03:49:04;149.13;;;74.63;;
18818;SDS011;9537;45.594;9.294;2023-02-22T03:50:13;150.93;;;75.03;;
18818;SDS011;9537;45.594;9.294;2023-02-22T03:51:19;152.07;;;73.27;;
18818;SDS011;9537;45.594;9.294;2023-02-22T03:52:21;154.13;;;73.37;;
18818;SDS011;9537;45.594;9.294;2023-02-22T03:53:22;142.70;;;73.17;;
18818;SDS011;9537;45.594;9.294;2023-02-22T03:54:25;148.33;;;72.93;;
18818;SDS011;9537;45.594;9.294;2023-02-22T03:55:28;144.03;;;75.97;;
18818;SDS011;9537;45.594;9.294;2023-02-22T03:56:32;145.33;;;74.57;;
18818;SDS011;9537;45.594;9.294;2023-02-22T03:57:38;148.43;;;76.87;;
18818;SDS011;9537;45.594;9.294;2023-02-22T03:58:41;146.07;;;76.23;;
18818;SDS011;9537;45.594;9.294;2023-02-22T03:59:44;146.90;;;74.17;;
18818;SDS011;9537;45.594;9.294;2023-02-22T04:00:47;151.97;;;77.53;;
18818;SDS011;9537;45.594;9.294;2023-02-22T04:01:52;148.70;;;76.57;;
18818;SDS011;9537;45.594;9.294;2023-02-22T04:02:55;153.50;;;74.57;;
18818;SDS011;9537;45.594;9.294;2023-02-22T04:03:56;151.83;;;76.43;;
18818;SDS011;9537;45.594;9.294;2023-02-22T04:04:59;157.20;;;76.83;;
18818;SDS011;9537;45.594;9.294;2023-02-22T04:06:00;147.93;;;76.00;;
18818;SDS011;9537;45.594;9.294;2023-02-22T04:07:04;156.97;;;76.80;;
18818;SDS011;9537;45.594;9.294;2023-02-22T04:08:05;154.90;;;78.23;;
18818;SDS011;9537;45.594;9.294;2023-02-22T04:09:07;145.43;;;73.80;;
18818;SDS011;9537;45.594;9.294;2023-02-22T04:10:08;148.57;;;75.63;;
18818;SDS011;9537;45.594;9.294;2023-02-22T04:11:10;155.30;;;78.40;;
18818;SDS011;9537;45.594;9.294;2023-02-22T04:12:11;155.17;;;76.43;;
18818;SDS011;9537;45.594;9.294;2023-02-22T04:13:13;154.37;;;76.63;;
18818;SDS011;9537;45.594;9.294;2023-02-22T04:14:14;148.57;;;74.80;;
18818;SDS011;9537;45.594;9.294;2023-02-22T04:15:18;150.80;;;76.80;;
18818;SDS011;9537;45.594;9.294;2023-02-22T04:16:21;148.17;;;75.20;;
18818;SDS011;9537;45.594;9.294;2023-02-22T04:17:23;142.10;;;73.27;;
18818;SDS011;9537;45.594;9.294;2023-02-22T04:18:24;151.77;;;75.13;;
18818;SDS011;9537;45.594;9.294;2023-02-22T04:19:26;146.50;;;75.80;;
18818;SDS011;9537;45.594;9.294;2023-02-22T04:20:27;145.53;;;74.63;;
18818;SDS011;9537;45.594;9.294;2023-02-22T04:21:28;142.50;;;71.73;;
18818;SDS011;9537;45.594;9.294;2023-02-22T04:22:31;153.30;;;74.37;;
18818;SDS011;9537;45.594;9.294;2023-02-22T04:23:33;143.10;;;72.20;;
18818;SDS011;9537;45.594;9.294;2023-02-22T04:24:34;155.03;;;75.03;;
18818;SDS011;9537;45.594;9.294;2023-02-22T04:25:36;150.97;;;76.17;;
18818;SDS011;9537;45.594;9.294;2023-02-22T04:26:37;151.87;;;76.00;;
18818;SDS011;9537;45.594;9.294;2023-02-22T04:27:38;145.47;;;75.30;;
18818;SDS011;9537;45.594;9.294;2023-02-22T04:28:39;150.17;;;75.10;;
18818;SDS011;9537;45.594;9.294;2023-02-22T04:29:41;142.60;;;73.90;;
18818;SDS011;9537;45.594;9.294;2023-02-22T04:30:42;150.77;;;76.10;;
18818;SDS011;9537;45.594;9.294;2023-02-22T04:31:45;152.53;;;75.77;;
18818;SDS011;9537;45.594;9.294;2023-02-22T04:32:46;149.97;;;75.63;;
18818;SDS011;9537;45.594;9.294;2023-02-22T04:33:48;150.33;;;75.20;;
18818;SDS011;9537;45.594;9.294;2023-02-22T04:34:49;156.57;;;75.30;;
18818;SDS011;9537;45.594;9.294;2023-02-22T04:35:51;144.87;;;72.90;;
18818;SDS011;9537;45.594;9.294;2023-02-22T04:36:52;145.97;;;71.87;;
18818;SDS011;9537;45.594;9.294;2023-02-22T04:37:55;152.13;;;75.10;;
18818;SDS011;9537;45.594;9.294;2023-02-22T04:38:57;148.03;;;72.47;;
18818;SDS011;9537;45.594;9.294;2023-02-22T04:39:59;133.67;;;69.60;;
18818;SDS011;9537;45.594;9.294;2023-02-22T04:41:01;150.20;;;74.83;;
18818;SDS011;9537;45.594;9.294;2023-02-22T04:42:03;152.13;;;74.37;;
18818;SDS011;9537;45.594;9.294;2023-02-22T04:43:04;159.83;;;76.23;;
18818;SDS011;9537;45.594;9.294;2023-02-22T04:44:06;153.27;;;75.10;;
18818;SDS011;9537;45.594;9.294;2023-02-22T04:45:08;142.47;;;72.50;;
18818;SDS011;9537;45.594;9.294;2023-02-22T04:46:10;147.47;;;74.20;;
18818;SDS011;9537;45.594;9.294;2023-02-22T04:47:11;146.13;;;71.80;;
18818;SDS011;9537;45.594;9.294;2023-02-22T04:48:14;149.67;;;77.23;;
18818;SDS011;9537;45.594;9.294;2023-02-22T04:49:15;151.00;;;75.80;;
18818;SDS011;9537;45.594;9.294;2023-02-22T04:50:17;150.87;;;76.80;;
18818;SDS011;9537;45.594;9.294;2023-02-22T04:51:18;147.00;;;74.00;;
18818;SDS011;9537;45.594;9.294;2023-02-22T04:52:20;156.17;;;75.47;;
18818;SDS011;9537;45.594;9.294;2023-02-22T04:53:23;146.23;;;73.17;;
18818;SDS011;9537;45.594;9.294;2023-02-22T04:54:25;151.77;;;74.67;;
18818;SDS011;9537;45.594;9.294;2023-02-22T04:55:26;144.83;;;72.57;;
18818;SDS011;9537;45.594;9.294;2023-02-22T04:56:28;142.43;;;71.70;;
18818;SDS011;9537;45.594;9.294;2023-02-22T04:57:29;145.77;;;74.40;;
18818;SDS011;9537;45.594;9.294;2023-02-22T04:58:31;149.07;;;72.40;;
18818;SDS011;9537;45.594;9.294;2023-02-22T04:59:32;151.00;;;74.47;;
18818;SDS011;9537;45.594;9.294;2023-02-22T05:00:34;147.40;;;70.67;;
18818;SDS011;9537;45.594;9.294;2023-02-22T05:01:36;147.13;;;73.77;;
18818;SDS011;9537;45.594;9.294;2023-02-22T05:02:38;142.03;;;72.03;;
18818;SDS011;9537;45.594;9.294;2023-02-22T05:03:39;149.50;;;77.47;;
18818;SDS011;9537;45.594;9.294;2023-02-22T05:04:42;145.17;;;73.43;;
18818;SDS011;9537;45.594;9.294;2023-02-22T05:05:43;148.33;;;74.00;;
18818;SDS011;9537;45.594;9.294;2023-02-22T05:06:45;155.30;;;76.50;;
18818;SDS011;9537;45.594;9.294;2023-02-22T05:07:47;144.13;;;74.60;;
18818;SDS011;9537;45.594;9.294;2023-02-22T05:08:51;149.50;;;74.37;;
18818;SDS011;9537;45.594;9.294;2023-02-22T05:09:52;143.13;;;72.23;;
18818;SDS011;9537;45.594;9.294;2023-02-22T05:10:54;144.00;;;74.57;;
18818;SDS011;9537;45.594;9.294;2023-02-22T05:11:55;146.37;;;73.03;;
18818;SDS011;9537;45.594;9.294;2023-02-22T05:12:57;147.57;;;73.27;;
18818;SDS011;9537;45.594;9.294;2023-02-22T05:13:58;153.87;;;74.33;;
18818;SDS011;9537;45.594;9.294;2023-02-22T05:15:00;144.60;;;72.57;;
18818;SDS011;9537;45.594;9.294;2023-02-22T05:16:01;143.93;;;73.10;;
18818;SDS011;9537;45.594;9.294;2023-02-22T05:17:04;141.40;;;70.60;;
18818;SDS011;9537;45.594;9.294;2023-02-22T05:18:05;152.57;;;74.87;;
18818;SDS011;9537;45.594;9.294;2023-02-22T05:19:07;147.70;;;72.13;;
18818;SDS011;9537;45.594;9.294;2023-02-22T05:20:09;149.83;;;71.57;;
18818;SDS011;9537;45.594;9.294;2023-02-22T05:21:17;147.93;;;70.90;;
18818;SDS011;9537;45.594;9.294;2023-02-22T05:22:18;140.37;;;71.47;;
18818;SDS011;9537;45.594;9.294;2023-02-22T05:23:20;141.93;;;70.27;;
18818;SDS011;9537;45.594;9.294;2023-02-22T05:24:22;141.80;;;72.67;;
18818;SDS011;9537;45.594;9.294;2023-02-22T05:25:25;137.93;;;68.33;;
18818;SDS011;9537;45.594;9.294;2023-02-22T05:26:26;144.87;;;72.13;;
18818;SDS011;9537;45.594;9.294;2023-02-22T05:27:29;142.90;;;70.67;;
18818;SDS011;9537;45.594;9.294;2023-02-22T05:28:30;149.73;;;72.67;;
18818;SDS011;9537;45.594;9.294;2023-02-22T05:29:32;149.57;;;73.07;;
18818;SDS011;9537;45.594;9.294;2023-02-22T05:30:34;146.77;;;72.90;;
18818;SDS011;9537;45.594;9.294;2023-02-22T05:31:38;147.43;;;73.50;;
18818;SDS011;9537;45.594;9.294;2023-02-22T05:32:41;144.37;;;71.10;;
18818;SDS011;9537;45.594;9.294;2023-02-22T05:33:43;143.80;;;72.90;;
18818;SDS011;9537;45.594;9.294;2023-02-22T05:34:44;148.20;;;70.83;;
18818;SDS011;9537;45.594;9.294;2023-02-22T05:35:46;154.80;;;72.63;;
18818;SDS011;9537;45.594;9.294;2023-02-22T05:36:46;143.33;;;70.70;;
18818;SDS011;9537;45.594;9.294;2023-02-22T05:37:49;145.90;;;71.33;;
18818;SDS011;9537;45.594;9.294;2023-02-22T05:38:50;142.00;;;71.90;;
18818;SDS011;9537;45.594;9.294;2023-02-22T05:39:53;141.87;;;69.73;;
18818;SDS011;9537;45.594;9.294;2023-02-22T05:40:56;145.63;;;70.47;;
18818;SDS011;9537;45.594;9.294;2023-02-22T05:41:57;153.77;;;73.20;;
18818;SDS011;9537;45.594;9.294;2023-02-22T05:42:59;148.93;;;72.20;;
18818;SDS011;9537;45.594;9.294;2023-02-22T05:44:03;139.03;;;69.63;;
18818;SDS011;9537;45.594;9.294;2023-02-22T05:45:06;145.13;;;72.37;;
18818;SDS011;9537;45.594;9.294;2023-02-22T05:46:08;144.70;;;71.20;;
18818;SDS011;9537;45.594;9.294;2023-02-22T05:47:10;145.97;;;71.73;;
18818;SDS011;9537;45.594;9.294;2023-02-22T05:48:11;150.93;;;73.07;;
18818;SDS011;9537;45.594;9.294;2023-02-22T05:49:13;149.67;;;72.37;;
18818;SDS011;9537;45.594;9.294;2023-02-22T05:50:15;140.73;;;71.33;;
18818;SDS011;9537;45.594;9.294;2023-02-22T05:51:18;139.20;;;70.40;;
18818;SDS011;9537;45.594;9.294;2023-02-22T05:52:19;139.03;;;70.27;;
18818;SDS011;9537;45.594;9.294;2023-02-22T05:53:21;146.20;;;71.53;;
18818;SDS011;9537;45.594;9.294;2023-02-22T05:54:23;148.93;;;73.50;;
18818;SDS011;9537;45.594;9.294;2023-02-22T05:55:26;139.73;;;71.43;;
18818;SDS011;9537;45.594;9.294;2023-02-22T05:56:27;142.77;;;68.53;;
18818;SDS011;9537;45.594;9.294;2023-02-22T05:57:30;137.50;;;68.97;;
18818;SDS011;9537;45.594;9.294;2023-02-22T05:58:31;138.17;;;71.73;;
18818;SDS011;9537;45.594;9.294;2023-02-22T05:59:33;139.97;;;70.40;;
18818;SDS011;9537;45.594;9.294;2023-02-22T06:00:34;141.67;;;69.93;;
18818;SDS011;9537;45.594;9.294;2023-02-22T06:01:36;150.47;;;74.53;;
18818;SDS011;9537;45.594;9.294;2023-02-22T06:02:37;147.97;;;70.30;;
18818;SDS011;9537;45.594;9.294;2023-02-22T06:03:39;141.63;;;71.47;;
18818;SDS011;9537;45.594;9.294;2023-02-22T06:04:43;143.40;;;70.90;;
18818;SDS011;9537;45.594;9.294;2023-02-22T06:05:44;146.57;;;71.17;;
18818;SDS011;9537;45.594;9.294;2023-02-22T06:06:46;142.23;;;70.83;;
18818;SDS011;9537;45.594;9.294;2023-02-22T06:07:47;153.03;;;71.17;;
18818;SDS011;9537;45.594;9.294;2023-02-22T06:08:49;148.80;;;71.70;;
18818;SDS011;9537;45.594;9.294;2023-02-22T06:09:51;134.97;;;69.67;;
18818;SDS011;9537;45.594;9.294;2023-02-22T06:10:54;147.37;;;73.80;;
18818;SDS011;9537;45.594;9.294;2023-02-22T06:11:56;151.23;;;72.20;;
18818;SDS011;9537;45.594;9.294;2023-02-22T06:12:57;141.20;;;70.60;;
18818;SDS011;9537;45.594;9.294;2023-02-22T06:14:00;146.03;;;69.40;;
18818;SDS011;9537;45.594;9.294;2023-02-22T06:15:02;143.23;;;72.50;;
18818;SDS011;9537;45.594;9.294;2023-02-22T06:16:05;145.13;;;70.03;;
18818;SDS011;9537;45.594;9.294;2023-02-22T06:17:06;140.43;;;71.80;;
18818;SDS011;9537;45.594;9.294;2023-02-22T06:18:08;145.90;;;70.07;;
18818;SDS011;9537;45.594;9.294;2023-02-22T06:19:10;144.50;;;72.53;;
18818;SDS011;9537;45.594;9.294;2023-02-22T06:20:13;141.40;;;71.40;;
18818;SDS011;9537;45.594;9.294;2023-02-22T06:21:15;142.77;;;70.33;;
18818;SDS011;9537;45.594;9.294;2023-02-22T06:22:18;139.73;;;68.67;;
18818;SDS011;9537;45.594;9.294;2023-02-22T06:23:19;135.67;;;69.30;;